createdAt,value
2018-09-16T00:04:09.744Z,29.13
2018-09-16T00:06:38.277Z,30.73
2018-09-16T00:09:08.823Z,31.80
2018-09-16T00:11:37.362Z,32.80
2018-09-16T00:14:06.004Z,31.87
2018-09-16T00:16:34.503Z,31.70
2018-09-16T00:19:03.051Z,32.90
2018-09-16T00:21:31.526Z,32.53
2018-09-16T00:24:00.038Z,34.33
2018-09-16T00:26:29.433Z,34.60
2018-09-16T00:28:58.417Z,32.27
2018-09-16T00:31:26.882Z,31.23
2018-09-16T00:33:55.404Z,31.57
2018-09-16T00:36:23.884Z,31.67
2018-09-16T00:38:52.402Z,33.95
2018-09-16T00:41:21.167Z,30.72
2018-09-16T00:43:49.933Z,30.53
2018-09-16T00:46:18.417Z,32.17
2018-09-16T00:48:47.166Z,32.47
2018-09-16T00:51:17.343Z,33.13
2018-09-16T00:53:45.827Z,30.87
2018-09-16T00:57:22.886Z,30.75
2018-09-16T00:59:51.420Z,29.82
2018-09-16T01:02:19.903Z,30.20
2018-09-16T01:04:48.718Z,28.70
2018-09-16T01:07:17.358Z,29.27
2018-09-16T01:09:46.342Z,30.63
2018-09-16T01:17:11.362Z,30.00
2018-09-16T01:19:40.829Z,31.17
2018-09-16T01:22:09.326Z,32.90
2018-09-16T01:24:38.215Z,29.80
2018-09-16T01:27:06.714Z,29.10
2018-09-16T01:29:36.180Z,30.20
2018-09-16T01:32:04.764Z,30.00
2018-09-16T01:34:33.267Z,28.13
2018-09-16T01:37:05.985Z,27.23
2018-09-16T01:39:34.682Z,27.30
2018-09-16T01:42:04.204Z,26.80
2018-09-16T01:44:32.735Z,28.17
2018-09-16T01:47:01.286Z,25.70
2018-09-16T01:49:29.774Z,28.20
2018-09-16T01:51:58.666Z,27.00
2018-09-16T01:54:27.182Z,27.63
2018-09-16T01:56:55.686Z,26.03
2018-09-16T01:59:24.223Z,26.90
2018-09-16T02:01:52.722Z,28.50
2018-09-16T02:04:21.211Z,28.47
2018-09-16T02:06:50.373Z,28.00
2018-09-16T02:09:18.835Z,27.43
2018-09-16T02:11:47.309Z,26.93
2018-09-16T02:14:17.389Z,27.70
2018-09-16T02:16:45.890Z,26.40
2018-09-16T02:24:11.169Z,33.03
2018-09-16T02:26:39.647Z,31.80
2018-09-16T02:29:08.112Z,31.33
2018-09-16T02:31:37.825Z,32.90
2018-09-16T02:34:06.287Z,32.90
2018-09-16T02:36:34.774Z,31.93
2018-09-16T02:39:03.498Z,31.30
2018-09-16T02:41:32.017Z,33.50
2018-09-16T02:44:00.519Z,31.50
2018-09-16T02:46:29.550Z,34.40
2018-09-16T02:48:58.069Z,33.20
2018-09-16T02:51:26.581Z,34.63
2018-09-16T02:53:55.120Z,33.47
2018-09-16T02:56:23.597Z,33.10
2018-09-16T02:58:52.118Z,31.93
2018-09-16T03:01:20.654Z,29.23
2018-09-16T03:03:49.118Z,31.67
2018-09-16T03:06:22.130Z,32.10
2018-09-16T03:08:50.741Z,31.50
2018-09-16T03:11:19.256Z,30.80
2018-09-16T03:13:47.750Z,31.80
2018-09-16T03:16:17.383Z,31.73
2018-09-16T03:18:46.103Z,32.37
2018-09-16T03:26:08.080Z,29.30
2018-09-16T03:28:36.548Z,30.37
2018-09-16T03:31:05.020Z,30.70
2018-09-16T03:33:34.514Z,28.17
2018-09-16T03:36:03.005Z,29.90
2018-09-16T03:38:31.945Z,27.93
2018-09-16T03:41:00.450Z,30.55
2018-09-16T03:43:28.901Z,30.73
2018-09-16T03:45:57.473Z,30.45
2018-09-16T03:48:26.530Z,30.30
2018-09-16T03:50:55.051Z,30.67
2018-09-16T03:53:23.533Z,34.33
2018-09-16T03:55:52.010Z,32.17
2018-09-16T03:58:20.493Z,32.67
2018-09-16T04:00:49.122Z,31.70
2018-09-16T04:03:18.789Z,30.90
2018-09-16T04:05:47.277Z,28.87
2018-09-16T04:08:17.674Z,31.12
2018-09-16T04:10:46.798Z,30.90
2018-09-16T04:18:12.341Z,28.97
2018-09-16T04:20:40.844Z,28.70
2018-09-16T04:23:09.586Z,27.60
2018-09-16T04:25:38.112Z,31.87
2018-09-16T04:28:06.636Z,28.37
2018-09-16T04:30:35.139Z,27.43
2018-09-16T04:33:03.895Z,30.03
2018-09-16T04:35:33.333Z,27.90
2018-09-16T04:38:01.815Z,28.70
2018-09-16T04:40:30.329Z,29.87
2018-09-16T04:42:58.810Z,28.17
2018-09-16T04:45:27.285Z,27.80
2018-09-16T04:47:55.790Z,29.60
2018-09-16T04:50:24.305Z,29.30
2018-09-16T04:52:54.850Z,32.37
2018-09-16T04:55:25.519Z,31.10
2018-09-16T04:57:54.038Z,28.70
2018-09-16T05:00:22.525Z,27.98
2018-09-16T05:02:51.015Z,28.90
2018-09-16T05:05:19.519Z,31.12
2018-09-16T05:07:48.023Z,29.77
2018-09-16T05:10:19.185Z,28.27
2018-09-16T05:12:47.682Z,29.10
2018-09-16T05:15:17.671Z,27.77
2018-09-16T05:17:46.249Z,28.07
2018-09-16T05:25:11.134Z,26.07
2018-09-16T05:27:39.725Z,25.47
2018-09-16T05:30:08.342Z,24.70
2018-09-16T05:32:36.866Z,24.53
2018-09-16T05:35:05.458Z,24.93
2018-09-16T05:37:34.517Z,25.32
2018-09-16T05:40:03.237Z,26.10
2018-09-16T05:42:31.726Z,23.63
2018-09-16T05:45:00.216Z,26.23
2018-09-16T05:47:28.849Z,25.17
2018-09-16T05:49:57.405Z,24.23
2018-09-16T05:52:25.910Z,23.87
2018-09-16T05:54:54.477Z,24.10
2018-09-16T05:57:22.964Z,26.00
2018-09-16T05:59:51.500Z,25.20
2018-09-16T06:02:20.600Z,25.30
2018-09-16T06:04:49.525Z,24.53
2018-09-16T06:07:18.063Z,25.50
2018-09-16T06:09:46.597Z,26.27
2018-09-16T06:17:13.026Z,24.70
2018-09-16T06:19:41.501Z,25.90
2018-09-16T06:22:10.062Z,25.37
2018-09-16T06:24:40.055Z,22.70
2018-09-16T06:27:08.569Z,25.50
2018-09-16T06:29:37.054Z,22.40
2018-09-16T06:32:05.734Z,23.43
2018-09-16T06:34:34.234Z,24.40
2018-09-16T06:37:02.779Z,21.57
2018-09-16T06:39:33.320Z,22.20
2018-09-16T06:42:01.791Z,21.27
2018-09-16T06:44:30.298Z,22.03
2018-09-16T06:47:00.046Z,21.07
2018-09-16T06:49:28.526Z,21.60
2018-09-16T06:51:57.102Z,21.40
2018-09-16T06:54:25.671Z,21.33
2018-09-16T06:56:54.153Z,20.37
2018-09-16T06:59:22.794Z,18.48
2018-09-16T07:01:51.337Z,16.95
2018-09-16T07:04:19.822Z,15.40
2018-09-16T07:06:48.362Z,14.30
2018-09-16T07:09:17.558Z,14.47
2018-09-16T07:11:46.035Z,13.97
2018-09-16T07:19:08.993Z,13.27
2018-09-16T07:21:38.094Z,12.03
2018-09-16T07:24:06.809Z,12.10
2018-09-16T07:26:36.033Z,12.83
2018-09-16T07:29:04.751Z,11.57
2018-09-16T07:31:33.430Z,11.08
2018-09-16T07:34:02.084Z,10.80
2018-09-16T07:36:30.645Z,12.07
2018-09-16T07:38:59.207Z,10.40
2018-09-16T07:41:28.268Z,10.70
2018-09-16T07:43:56.806Z,10.10
2018-09-16T07:46:25.306Z,10.80
2018-09-16T07:48:53.900Z,10.10
2018-09-16T07:51:22.451Z,10.38
2018-09-16T07:53:51.004Z,10.20
2018-09-16T07:56:19.609Z,8.63
2018-09-16T07:58:48.104Z,9.67
2018-09-16T08:01:17.434Z,9.30
2018-09-16T08:03:45.734Z,8.27
2018-09-16T08:11:12.941Z,8.70
2018-09-16T08:13:41.482Z,9.20
2018-09-16T08:16:09.905Z,8.53
2018-09-16T08:18:38.450Z,8.75
2018-09-16T08:21:07.068Z,8.83
2018-09-16T08:23:35.943Z,8.80
2018-09-16T08:26:04.574Z,8.03
2018-09-16T08:28:35.183Z,7.43
2018-09-16T08:31:03.686Z,8.60
2018-09-16T08:33:32.218Z,8.23
2018-09-16T08:36:00.682Z,7.80
2018-09-16T08:38:29.148Z,8.10
2018-09-16T08:40:57.839Z,7.87
2018-09-16T08:43:27.061Z,8.40
2018-09-16T08:45:56.068Z,7.60
2018-09-16T08:48:25.280Z,7.83
2018-09-16T08:50:54.456Z,7.33
2018-09-16T08:53:22.923Z,7.90
2018-09-16T08:55:52.661Z,8.10
2018-09-16T08:58:21.182Z,7.60
2018-09-16T09:00:50.037Z,8.93
2018-09-16T09:03:18.594Z,7.77
2018-09-16T09:05:47.576Z,7.33
2018-09-16T09:08:17.313Z,7.03
2018-09-16T09:10:46.016Z,7.23
2018-09-16T09:18:12.834Z,8.33
2018-09-16T09:20:41.313Z,7.53
2018-09-16T09:23:09.802Z,7.30
2018-09-16T09:25:38.422Z,7.80
2018-09-16T09:28:06.959Z,7.47
2018-09-16T09:30:35.686Z,8.20
2018-09-16T09:33:04.231Z,7.80
2018-09-16T09:35:32.992Z,7.93
2018-09-16T09:38:01.505Z,8.30
2018-09-16T09:40:30.537Z,8.90
2018-09-16T09:42:59.019Z,8.80
2018-09-16T09:45:28.466Z,8.00
2018-09-16T09:47:57.007Z,8.80
2018-09-16T09:52:55.578Z,8.10
2018-09-16T09:55:24.143Z,7.50
2018-09-16T09:57:52.713Z,8.53
2018-09-16T10:00:26.607Z,8.15
2018-09-16T10:02:55.271Z,8.10
2018-09-16T10:05:23.873Z,9.17
2018-09-16T10:07:52.471Z,9.03
2018-09-16T10:10:20.969Z,9.33
2018-09-16T10:12:49.588Z,9.37
2018-09-16T10:15:18.800Z,8.95
2018-09-16T10:17:48.610Z,9.55
2018-09-16T10:20:17.419Z,10.20
2018-09-16T10:22:46.033Z,11.30
2018-09-16T10:30:09.277Z,12.47
2018-09-16T10:32:38.425Z,11.80
2018-09-16T10:35:07.061Z,12.60
2018-09-16T10:37:35.596Z,11.80
2018-09-16T10:40:04.618Z,12.00
2018-09-16T10:42:33.134Z,13.03
2018-09-16T10:45:01.998Z,12.73
2018-09-16T10:47:31.189Z,14.07
2018-09-16T10:49:59.789Z,13.40
2018-09-16T10:52:28.321Z,13.30
2018-09-16T10:54:56.798Z,12.80
2018-09-16T10:57:26.836Z,13.97
2018-09-16T10:59:56.389Z,13.50
2018-09-16T11:02:25.106Z,13.73
2018-09-16T11:04:53.682Z,12.57
2018-09-16T11:07:24.598Z,14.00
2018-09-16T11:09:53.114Z,12.63
2018-09-16T11:12:21.633Z,12.77
2018-09-16T11:14:50.121Z,10.80
2018-09-16T11:17:18.597Z,13.00
2018-09-16T11:19:47.046Z,13.23
2018-09-16T11:27:13.926Z,13.60
2018-09-16T11:29:42.392Z,12.30
2018-09-16T11:32:11.393Z,13.27
2018-09-16T11:34:40.110Z,14.27
2018-09-16T11:37:08.746Z,12.50
2018-09-16T11:39:37.446Z,13.13
2018-09-16T11:42:05.986Z,14.10
2018-09-16T11:44:34.442Z,13.20
2018-09-16T11:47:02.941Z,13.17
2018-09-16T11:49:32.884Z,12.50
2018-09-16T11:52:02.488Z,13.78
2018-09-16T11:54:31.612Z,13.50
2018-09-16T11:57:00.458Z,12.93
2018-09-16T11:59:29.062Z,13.00
2018-09-16T12:01:57.819Z,13.70
2018-09-16T12:04:26.351Z,12.03
2018-09-16T12:06:54.942Z,12.10
2018-09-16T12:09:23.935Z,11.63
2018-09-16T12:11:52.568Z,12.63
2018-09-16T12:14:21.385Z,11.22
2018-09-16T12:16:50.066Z,12.20
2018-09-16T12:19:18.882Z,11.03
2018-09-16T12:21:47.554Z,11.30
2018-09-16T12:24:17.469Z,11.65
2018-09-16T12:26:46.009Z,11.13
2018-09-16T12:34:11.931Z,10.47
2018-09-16T12:36:40.397Z,10.75
2018-09-16T12:39:11.701Z,10.67
2018-09-16T12:41:40.330Z,10.30
2018-09-16T12:44:08.845Z,10.77
2018-09-16T12:46:37.614Z,10.57
2018-09-16T12:49:06.197Z,9.93
2018-09-16T12:51:34.931Z,11.60
2018-09-16T12:54:03.475Z,10.98
2018-09-16T12:56:32.343Z,10.27
2018-09-16T12:59:02.144Z,10.37
2018-09-16T13:01:30.622Z,10.03
2018-09-16T13:03:59.154Z,10.03
2018-09-16T13:06:27.665Z,9.65
2018-09-16T13:08:56.137Z,9.53
2018-09-16T13:11:25.664Z,9.85
2018-09-16T13:13:54.375Z,9.97
2018-09-16T13:16:22.861Z,9.20
2018-09-16T13:18:51.462Z,9.20
2018-09-16T13:21:19.965Z,9.20
2018-09-16T13:23:48.433Z,9.33
2018-09-16T13:26:17.454Z,9.77
2018-09-16T13:28:46.165Z,9.50
2018-09-16T13:36:13.966Z,9.37
2018-09-16T13:38:42.433Z,8.90
2018-09-16T13:41:10.903Z,9.50
2018-09-16T13:43:39.417Z,9.70
2018-09-16T13:46:07.897Z,9.50
2018-09-16T13:48:36.362Z,8.98
2018-09-16T13:51:04.893Z,8.67
2018-09-16T13:53:33.960Z,9.53
2018-09-16T13:56:02.489Z,9.10
2018-09-16T13:58:32.354Z,8.93
2018-09-16T14:01:00.833Z,9.40
2018-09-16T14:03:29.331Z,9.70
2018-09-16T14:05:57.818Z,8.70
2018-09-16T14:08:26.309Z,8.30
2018-09-16T14:10:54.846Z,9.10
2018-09-16T14:13:23.378Z,8.53
2018-09-16T14:15:51.863Z,9.17
2018-09-16T14:18:20.318Z,9.10
2018-09-16T14:20:49.149Z,8.70
2018-09-16T14:23:17.621Z,8.93
2018-09-16T14:25:46.256Z,10.03
2018-09-16T14:33:16.276Z,10.20
2018-09-16T14:35:44.751Z,9.77
2018-09-16T14:38:13.236Z,8.70
2018-09-16T14:40:41.789Z,9.30
2018-09-16T14:43:10.334Z,9.80
2018-09-16T14:45:38.838Z,9.50
2018-09-16T14:48:07.350Z,9.80
2018-09-16T14:50:35.871Z,10.03
2018-09-16T14:53:04.361Z,9.40
2018-09-16T14:55:33.655Z,9.70
2018-09-16T14:58:02.168Z,9.37
2018-09-16T15:00:30.991Z,9.63
2018-09-16T15:03:00.210Z,9.00
2018-09-16T15:05:28.712Z,10.50
2018-09-16T15:07:57.177Z,9.07
2018-09-16T15:10:25.726Z,9.77
2018-09-16T15:12:54.217Z,9.60
2018-09-16T15:15:22.674Z,9.40
2018-09-16T15:17:51.174Z,9.90
2018-09-16T15:20:20.063Z,9.50
2018-09-16T15:22:49.465Z,9.23
2018-09-16T15:25:18.107Z,9.97
2018-09-16T15:27:46.714Z,9.70
2018-09-16T15:35:09.553Z,9.17
2018-09-16T15:37:38.158Z,9.93
2018-09-16T15:40:07.360Z,9.47
2018-09-16T15:42:36.224Z,10.20
2018-09-16T15:45:05.082Z,9.80
2018-09-16T15:47:33.811Z,10.45
2018-09-16T15:50:02.330Z,9.67
2018-09-16T15:52:30.813Z,9.83
2018-09-16T15:54:59.326Z,10.43
2018-09-16T15:57:28.409Z,11.10
2018-09-16T15:59:56.916Z,9.87
2018-09-16T16:02:25.435Z,8.60
2018-09-16T16:04:54.226Z,9.83
2018-09-16T16:07:22.699Z,9.50
2018-09-16T16:09:51.177Z,10.83
2018-09-16T16:12:19.707Z,10.00
2018-09-16T16:14:48.167Z,9.70
2018-09-16T16:17:18.616Z,10.66
2018-09-16T16:19:47.112Z,9.80
2018-09-16T16:22:17.337Z,10.40
2018-09-16T16:24:45.829Z,10.67
2018-09-16T16:32:08.438Z,11.13
2018-09-16T16:34:36.939Z,10.17
2018-09-16T16:37:05.459Z,9.93
2018-09-16T16:39:33.970Z,11.38
2018-09-16T16:42:02.441Z,11.50
2018-09-16T16:44:31.173Z,11.93
2018-09-16T16:46:59.742Z,11.10
2018-09-16T16:49:28.205Z,12.23
2018-09-16T16:51:56.698Z,10.57
2018-09-16T16:54:26.141Z,11.97
2018-09-16T16:56:54.650Z,10.63
2018-09-16T16:59:23.735Z,11.33
2018-09-16T17:01:52.794Z,11.43
2018-09-16T17:04:21.605Z,11.65
2018-09-16T17:06:50.204Z,10.90
2018-09-16T17:09:18.760Z,10.80
2018-09-16T17:11:47.254Z,12.87
2018-09-16T17:19:10.041Z,12.20
2018-09-16T17:21:38.568Z,14.10
2018-09-16T17:24:07.131Z,13.67
2018-09-16T17:26:35.654Z,17.20
2018-09-16T17:29:04.243Z,18.83
2018-09-16T17:31:32.668Z,15.57
2018-09-16T17:34:01.661Z,17.53
2018-09-16T17:36:30.171Z,17.67
2018-09-16T17:38:58.817Z,17.87
2018-09-16T17:41:28.100Z,15.25
2018-09-16T17:43:56.654Z,19.30
2018-09-16T17:46:25.162Z,18.73
2018-09-16T17:48:53.645Z,19.73
2018-09-16T17:51:22.134Z,17.50
2018-09-16T17:53:50.614Z,19.07
2018-09-16T17:56:19.204Z,18.00
2018-09-16T17:58:47.638Z,18.30
2018-09-16T18:06:09.494Z,19.50
2018-09-16T18:08:45.089Z,17.20
2018-09-16T18:16:09.034Z,17.43
2018-09-16T18:18:37.927Z,17.37
2018-09-16T18:21:06.460Z,15.97
2018-09-16T18:23:35.344Z,14.77
2018-09-16T18:26:03.829Z,15.67
2018-09-16T18:28:32.390Z,15.43
2018-09-16T18:31:01.440Z,16.10
2018-09-16T18:33:30.080Z,16.50
2018-09-16T18:35:58.577Z,17.02
2018-09-16T18:38:27.098Z,16.90
2018-09-16T18:40:55.634Z,15.20
2018-09-16T18:43:24.195Z,15.80
2018-09-16T18:45:53.051Z,15.27
2018-09-16T18:48:21.774Z,14.47
2018-09-16T18:50:50.770Z,15.33
2018-09-16T18:53:19.569Z,16.53
2018-09-16T18:55:49.676Z,16.73
2018-09-16T18:58:18.174Z,17.17
2018-09-16T19:00:46.787Z,15.63
2018-09-16T19:08:14.958Z,19.40
2018-09-16T19:10:45.299Z,19.52
2018-09-16T19:18:09.904Z,17.43
2018-09-16T19:20:39.178Z,19.07
2018-09-16T19:23:07.821Z,20.73
2018-09-16T19:25:37.364Z,19.40
2018-09-16T19:28:06.085Z,17.60
2018-09-16T19:30:35.276Z,19.98
2018-09-16T19:33:03.845Z,19.10
2018-09-16T19:35:32.475Z,19.20
2018-09-16T19:38:01.030Z,18.20
2018-09-16T19:40:29.662Z,19.07
2018-09-16T19:42:58.204Z,18.90
2018-09-16T19:45:26.730Z,20.67
2018-09-16T19:47:56.602Z,18.83
2018-09-16T19:50:25.170Z,20.50
2018-09-16T19:52:53.692Z,21.40
2018-09-16T19:55:22.214Z,19.17
2018-09-16T19:57:51.326Z,19.40
2018-09-16T20:00:19.821Z,18.73
2018-09-16T20:02:48.383Z,17.73
2018-09-16T20:05:19.250Z,20.54
2018-09-16T20:07:47.886Z,18.63
2018-09-16T20:10:18.477Z,20.50
2018-09-16T20:12:47.028Z,21.00
2018-09-16T20:15:17.723Z,21.93
2018-09-16T20:17:46.461Z,19.40
2018-09-16T20:25:09.879Z,22.83
2018-09-16T20:27:38.465Z,20.37
2018-09-16T20:30:10.015Z,22.50
2018-09-16T20:32:39.049Z,21.63
2018-09-16T20:35:07.598Z,21.00
2018-09-16T20:37:36.100Z,21.77
2018-09-16T20:40:04.626Z,22.30
2018-09-16T20:42:33.218Z,21.33
2018-09-16T20:45:01.818Z,20.30
2018-09-16T20:47:30.405Z,20.17
2018-09-16T20:49:58.898Z,19.53
2018-09-16T20:52:27.405Z,19.92
2018-09-16T20:54:55.946Z,20.10
2018-09-16T20:57:24.486Z,19.27
2018-09-16T20:59:53.006Z,19.73
2018-09-16T21:02:21.545Z,18.40
2018-09-16T21:04:51.269Z,20.20
2018-09-16T21:07:20.934Z,20.07
2018-09-16T21:09:49.929Z,19.90
2018-09-16T21:12:19.006Z,20.70
2018-09-16T21:14:47.623Z,18.62
2018-09-16T21:17:18.073Z,19.48
2018-09-16T21:19:46.922Z,17.83
2018-09-16T21:27:09.067Z,18.40
2018-09-16T21:29:37.761Z,20.03
2018-09-16T21:32:07.451Z,20.97
2018-09-16T21:34:36.028Z,18.63
2018-09-16T21:37:04.509Z,19.07
2018-09-16T21:39:32.972Z,20.00
2018-09-16T21:42:01.487Z,19.20
2018-09-16T21:44:29.957Z,19.70
2018-09-16T21:46:58.522Z,20.00
2018-09-16T21:49:27.021Z,20.97
2018-09-16T21:51:55.571Z,21.13
2018-09-16T21:54:24.064Z,18.87
2018-09-16T21:56:53.169Z,19.40
2018-09-16T21:59:21.645Z,19.60
2018-09-16T22:01:50.148Z,18.80
2018-09-16T22:04:18.649Z,19.20
2018-09-16T22:06:47.158Z,19.77
2018-09-16T22:09:18.202Z,20.85
2018-09-16T22:11:46.713Z,20.67
2018-09-16T22:19:14.848Z,21.17
2018-09-16T22:21:43.373Z,19.77
2018-09-16T22:24:11.887Z,20.30
2018-09-16T22:26:40.406Z,18.53
2018-09-16T22:29:15.599Z,22.47
2018-09-16T22:31:44.109Z,21.60
2018-09-16T22:34:12.597Z,25.20
2018-09-16T22:36:41.604Z,33.27
2018-09-16T22:39:10.510Z,29.50
2018-09-16T22:41:39.021Z,25.03
2018-09-16T22:44:08.399Z,25.90
2018-09-16T22:46:36.915Z,32.10
2018-09-16T22:49:05.426Z,29.63
2018-09-16T22:51:33.901Z,25.88
2018-09-16T22:54:02.612Z,25.07
2018-09-16T22:56:31.082Z,27.97
2018-09-16T22:59:00.056Z,24.73
2018-09-16T23:01:28.643Z,23.67
2018-09-16T23:03:57.128Z,26.57
2018-09-16T23:06:25.642Z,26.93
2018-09-16T23:08:59.333Z,28.57
2018-09-16T23:11:28.551Z,28.40
2018-09-16T23:13:57.029Z,28.20
2018-09-16T23:16:25.578Z,29.07
2018-09-16T23:18:54.101Z,27.33
2018-09-16T23:21:22.588Z,28.90
2018-09-16T23:23:51.133Z,28.07
2018-09-16T23:26:19.652Z,26.10
2018-09-16T23:28:48.766Z,25.60
2018-09-16T23:31:17.402Z,25.17
2018-09-16T23:33:45.898Z,25.07
2018-09-16T23:41:08.866Z,27.70
2018-09-16T23:43:37.391Z,29.35
2018-09-16T23:46:05.885Z,27.27
2018-09-16T23:48:34.675Z,28.40
2018-09-16T23:51:03.166Z,30.00
2018-09-16T23:53:31.634Z,28.67
2018-09-16T23:56:00.153Z,28.73
2018-09-16T23:58:28.675Z,28.67
